createdAt,value
2017-01-06T00:00:34.794Z,0
2017-01-06T00:02:47.280Z,0
2017-01-06T00:05:02.898Z,0
2017-01-06T00:07:17.438Z,0
2017-01-06T00:09:30.066Z,0
2017-01-06T00:11:46.320Z,0
2017-01-06T00:14:04.469Z,0
2017-01-06T00:16:19.442Z,0
2017-01-06T00:18:38.038Z,0
2017-01-06T00:20:54.366Z,0
2017-01-06T00:23:08.319Z,0
2017-01-06T00:25:22.036Z,0
2017-01-06T00:27:30.522Z,0
2017-01-06T00:29:45.563Z,0
2017-01-06T00:31:59.704Z,0
2017-01-06T00:34:12.173Z,0
2017-01-06T00:36:19.546Z,0
2017-01-06T00:38:34.322Z,0
2017-01-06T00:40:41.959Z,0
2017-01-06T00:42:55.667Z,0
2017-01-06T00:45:08.571Z,0
2017-01-06T00:47:24.060Z,0
2017-01-06T00:49:36.374Z,0
2017-01-06T00:51:43.679Z,0
2017-01-06T00:53:56.117Z,0
2017-01-06T00:56:08.625Z,0
2017-01-06T00:58:21.103Z,0
2017-01-06T01:00:33.427Z,0
2017-01-06T01:02:45.912Z,0
2017-01-06T01:04:58.315Z,0
2017-01-06T01:07:12.688Z,0
2017-01-06T01:09:25.031Z,0
2017-01-06T01:11:32.415Z,0
2017-01-06T01:13:44.791Z,0
2017-01-06T01:15:57.267Z,0
2017-01-06T01:18:09.933Z,0
2017-01-06T01:20:22.580Z,0
2017-01-06T01:22:34.830Z,0
2017-01-06T01:24:47.100Z,0
2017-01-06T01:26:55.456Z,0
2017-01-06T01:29:03.032Z,0
2017-01-06T01:31:15.422Z,0
2017-01-06T01:33:27.912Z,0
2017-01-06T01:35:40.333Z,0
2017-01-06T01:37:52.733Z,0
2017-01-06T01:40:05.197Z,0
2017-01-06T01:42:17.496Z,0
2017-01-06T01:44:31.134Z,0
2017-01-06T01:46:38.839Z,0
2017-01-06T01:48:46.241Z,0
2017-01-06T01:50:58.675Z,0
2017-01-06T01:53:13.685Z,0
2017-01-06T01:55:26.665Z,0
2017-01-06T01:57:39.100Z,0
2017-01-06T01:59:51.587Z,0
2017-01-06T02:02:04.122Z,0
2017-01-06T02:04:16.475Z,0
2017-01-06T02:06:28.872Z,0
2017-01-06T02:08:36.368Z,0
2017-01-06T02:10:48.691Z,0
2017-01-06T02:13:01.173Z,0
2017-01-06T02:15:13.504Z,0
2017-01-06T02:17:25.803Z,0
2017-01-06T02:19:37.977Z,0
2017-01-06T02:21:50.189Z,0
2017-01-06T02:24:02.631Z,0
2017-01-06T02:26:15.006Z,0
2017-01-06T02:28:22.875Z,0
2017-01-06T02:30:30.654Z,0
2017-01-06T02:32:43.115Z,0
2017-01-06T02:34:55.371Z,0
2017-01-06T02:37:08.634Z,0
2017-01-06T02:39:20.967Z,0
2017-01-06T02:41:33.239Z,0
2017-01-06T02:43:47.797Z,0
2017-01-06T02:46:00.190Z,0
2017-01-06T02:48:12.568Z,0
2017-01-06T02:50:19.900Z,0
2017-01-06T02:52:32.373Z,0
2017-01-06T02:54:44.649Z,0
2017-01-06T02:56:52.075Z,0
2017-01-06T02:59:04.457Z,0
2017-01-06T03:01:17.053Z,0
2017-01-06T03:03:29.804Z,0
2017-01-06T03:05:42.105Z,0
2017-01-06T03:07:54.443Z,0
2017-01-06T03:10:06.722Z,0
2017-01-06T03:12:18.993Z,0
2017-01-06T03:14:31.286Z,0
2017-01-06T03:16:44.485Z,0
2017-01-06T03:18:56.937Z,0
2017-01-06T03:21:04.439Z,0
2017-01-06T03:23:16.718Z,0
2017-01-06T03:25:29.042Z,0
2017-01-06T03:27:41.547Z,0
2017-01-06T03:29:54.102Z,0
2017-01-06T03:32:06.469Z,0
2017-01-06T03:34:18.860Z,0
2017-01-06T03:36:31.296Z,0
2017-01-06T03:38:44.063Z,0
2017-01-06T03:40:56.517Z,0
2017-01-06T03:43:09.916Z,0
2017-01-06T03:45:22.321Z,0
2017-01-06T03:47:34.632Z,0
2017-01-06T03:49:42.057Z,0
2017-01-06T03:51:54.599Z,0
2017-01-06T03:54:06.919Z,0
2017-01-06T03:56:14.242Z,0
2017-01-06T03:58:21.509Z,0
2017-01-06T04:00:33.805Z,0
2017-01-06T04:02:36.090Z,0
2017-01-06T04:04:48.412Z,0
2017-01-06T04:06:55.814Z,0
2017-01-06T04:09:08.195Z,0
2017-01-06T04:11:15.598Z,0
2017-01-06T04:13:28.336Z,0
2017-01-06T04:15:40.789Z,0
2017-01-06T04:17:53.147Z,0
2017-01-06T04:20:06.456Z,0
2017-01-06T04:22:18.916Z,0
2017-01-06T04:24:31.168Z,0
2017-01-06T04:26:43.437Z,0
2017-01-06T04:28:56.599Z,0
2017-01-06T04:31:08.940Z,0
2017-01-06T04:33:21.309Z,0
2017-01-06T04:35:33.548Z,0
2017-01-06T04:37:45.899Z,0
2017-01-06T04:39:59.041Z,0
2017-01-06T04:42:11.261Z,0
2017-01-06T04:44:23.559Z,0
2017-01-06T04:46:36.342Z,0
2017-01-06T04:48:49.091Z,0
2017-01-06T04:51:01.558Z,0
2017-01-06T04:53:15.476Z,0
2017-01-06T04:55:27.930Z,0
2017-01-06T04:57:40.334Z,0
2017-01-06T04:59:52.826Z,0
2017-01-06T05:02:05.104Z,0
2017-01-06T05:04:17.712Z,0
2017-01-06T05:06:25.157Z,0
2017-01-06T05:08:37.662Z,0
2017-01-06T05:10:49.954Z,0
2017-01-06T05:13:02.409Z,0
2017-01-06T05:15:04.910Z,0
2017-01-06T05:17:17.262Z,0
2017-01-06T05:19:29.767Z,0
2017-01-06T05:21:42.065Z,0
2017-01-06T05:23:54.863Z,0
2017-01-06T05:26:07.329Z,0
2017-01-06T05:28:19.517Z,0
2017-01-06T05:30:32.013Z,0
2017-01-06T05:32:44.323Z,0
2017-01-06T05:34:51.619Z,0
2017-01-06T05:37:03.952Z,0
2017-01-06T05:39:11.336Z,0
2017-01-06T05:41:18.731Z,0
2017-01-06T05:43:30.934Z,0
2017-01-06T05:45:43.218Z,0
2017-01-06T05:47:55.552Z,0
2017-01-06T05:50:07.825Z,0
2017-01-06T05:52:20.250Z,0
2017-01-06T05:54:32.589Z,0
2017-01-06T05:56:44.884Z,0
2017-01-06T05:58:57.844Z,0
2017-01-06T06:01:10.425Z,0
2017-01-06T06:03:22.879Z,0
2017-01-06T06:05:35.207Z,0
2017-01-06T06:07:47.505Z,0
2017-01-06T06:10:00.034Z,0
2017-01-06T06:12:07.284Z,0
2017-01-06T06:14:19.627Z,0
2017-01-06T06:16:32.030Z,0
2017-01-06T06:18:39.291Z,0
2017-01-06T06:20:51.852Z,0
2017-01-06T06:23:04.123Z,0
2017-01-06T06:25:11.442Z,0
2017-01-06T06:27:23.690Z,0
2017-01-06T06:29:35.934Z,0
2017-01-06T06:31:48.311Z,0
2017-01-06T06:34:01.054Z,4
2017-01-06T06:36:14.702Z,4
2017-01-06T06:38:27.102Z,4
2017-01-06T06:40:39.364Z,12
2017-01-06T06:42:51.814Z,16
2017-01-06T06:45:04.200Z,20
2017-01-06T06:47:16.588Z,32
2017-01-06T06:49:28.874Z,44
2017-01-06T06:51:41.158Z,60
2017-01-06T06:53:53.431Z,84
2017-01-06T06:56:05.638Z,104
2017-01-06T06:58:17.889Z,136
2017-01-06T07:00:25.293Z,172
2017-01-06T07:02:37.621Z,208
2017-01-06T07:04:49.824Z,252
2017-01-06T07:07:02.421Z,292
2017-01-06T07:09:14.968Z,356
2017-01-06T07:11:28.770Z,428
2017-01-06T07:13:41.233Z,496
2017-01-06T07:15:53.445Z,568
2017-01-06T07:18:05.790Z,648
2017-01-06T07:20:18.117Z,744
2017-01-06T07:22:30.562Z,844
2017-01-06T07:24:42.834Z,936
2017-01-06T07:26:55.232Z,1020
2017-01-06T07:29:07.638Z,1104
2017-01-06T07:31:20.145Z,1172
2017-01-06T07:33:32.391Z,1252
2017-01-06T07:35:44.719Z,1348
2017-01-06T07:37:56.905Z,1444
2017-01-06T07:40:04.203Z,1516
2017-01-06T07:42:16.572Z,1644
2017-01-06T07:44:24.083Z,1784
2017-01-06T07:46:36.899Z,1896
2017-01-06T07:48:49.299Z,2000
2017-01-06T07:51:01.490Z,2128
2017-01-06T07:53:13.980Z,2268
2017-01-06T07:55:26.565Z,2356
2017-01-06T07:57:34.055Z,2500
2017-01-06T07:59:46.509Z,2648
2017-01-06T08:01:53.824Z,2696
2017-01-06T08:04:01.394Z,2648
2017-01-06T08:06:14.894Z,2616
2017-01-06T08:08:27.916Z,2728
2017-01-06T08:10:41.157Z,3020
2017-01-06T08:12:48.544Z,3480
2017-01-06T08:15:02.304Z,3892
2017-01-06T08:17:16.560Z,4100
2017-01-06T08:19:28.928Z,4212
2017-01-06T08:21:41.438Z,4152
2017-01-06T08:24:06.464Z,3920
2017-01-06T08:26:19.676Z,3732
2017-01-06T08:28:26.901Z,3476
2017-01-06T08:30:34.114Z,3172
2017-01-06T08:32:46.369Z,3036
2017-01-06T08:34:58.647Z,3304
2017-01-06T08:37:10.836Z,3964
2017-01-06T08:39:23.081Z,4912
2017-01-06T08:41:35.551Z,6092
2017-01-06T08:43:47.875Z,6396
2017-01-06T08:46:00.095Z,6668
2017-01-06T08:48:12.255Z,6216
2017-01-06T08:50:24.370Z,5564
2017-01-06T08:52:36.545Z,4440
2017-01-06T08:54:48.846Z,4556
2017-01-06T08:57:01.032Z,4572
2017-01-06T08:59:13.327Z,4684
2017-01-06T09:01:25.922Z,4788
2017-01-06T09:03:33.093Z,4872
2017-01-06T09:05:45.639Z,4728
2017-01-06T09:07:57.927Z,4700
2017-01-06T09:10:10.215Z,6828
2017-01-06T09:12:22.600Z,6804
2017-01-06T09:14:34.896Z,5132
2017-01-06T09:16:47.254Z,4696
2017-01-06T09:18:59.729Z,4664
2017-01-06T09:21:21.850Z,4680
2017-01-06T09:23:35.609Z,4712
2017-01-06T09:25:47.792Z,4848
2017-01-06T09:28:00.079Z,4796
2017-01-06T09:30:12.307Z,4496
2017-01-06T09:32:19.570Z,5120
2017-01-06T09:34:26.823Z,5208
2017-01-06T09:36:38.989Z,5196
2017-01-06T09:38:46.525Z,5300
2017-01-06T09:40:53.801Z,4508
2017-01-06T09:43:06.065Z,4652
2017-01-06T09:45:18.506Z,5708
2017-01-06T09:47:30.771Z,5760
2017-01-06T09:49:43.020Z,4600
2017-01-06T09:51:55.373Z,4716
2017-01-06T09:54:07.603Z,6476
2017-01-06T09:56:20.038Z,6820
2017-01-06T09:58:32.369Z,6672
2017-01-06T10:00:44.619Z,6428
2017-01-06T10:02:56.793Z,6520
2017-01-06T10:05:09.033Z,6584
2017-01-06T10:07:21.197Z,6924
2017-01-06T10:09:28.390Z,7216
2017-01-06T10:11:40.849Z,7364
2017-01-06T10:13:53.198Z,7324
2017-01-06T10:16:00.600Z,7384
2017-01-06T10:18:13.071Z,7040
2017-01-06T10:20:26.321Z,7084
2017-01-06T10:22:38.666Z,7488
2017-01-06T10:24:51.176Z,7600
2017-01-06T10:27:03.580Z,5104
2017-01-06T10:29:15.857Z,4100
2017-01-06T10:31:23.405Z,4128
2017-01-06T10:33:35.670Z,3968
2017-01-06T10:35:47.992Z,3916
2017-01-06T10:38:00.495Z,3936
2017-01-06T10:40:13.012Z,4012
2017-01-06T10:42:25.775Z,3980
2017-01-06T10:44:38.301Z,3976
2017-01-06T10:46:50.745Z,4112
2017-01-06T10:49:03.173Z,4140
2017-01-06T10:51:16.831Z,4088
2017-01-06T10:53:30.354Z,4172
2017-01-06T10:55:43.395Z,4532
2017-01-06T10:57:55.625Z,5328
2017-01-06T11:00:09.027Z,22144
2017-01-06T11:02:22.257Z,23200
2017-01-06T11:04:35.405Z,23488
2017-01-06T11:06:43.493Z,23968
2017-01-06T11:08:56.066Z,24608
2017-01-06T11:11:03.652Z,24640
2017-01-06T11:13:16.049Z,24640
2017-01-06T11:15:28.533Z,24544
2017-01-06T11:17:40.902Z,24224
2017-01-06T11:19:53.125Z,24128
2017-01-06T11:22:05.410Z,22976
2017-01-06T11:24:18.307Z,24448
2017-01-06T11:26:26.902Z,23904
2017-01-06T11:28:40.666Z,24736
2017-01-06T11:30:57.414Z,24448
2017-01-06T11:33:05.625Z,22176
2017-01-06T11:35:18.422Z,23424
2017-01-06T11:37:26.742Z,22528
2017-01-06T11:39:40.544Z,23296
2017-01-06T11:41:53.562Z,23712
2017-01-06T11:44:06.906Z,22368
2017-01-06T11:46:20.159Z,20480
2017-01-06T11:48:33.447Z,21728
2017-01-06T11:50:46.427Z,18336
2017-01-06T11:53:01.173Z,16192
2017-01-06T11:55:14.638Z,19552
2017-01-06T11:57:28.048Z,14240
2017-01-06T11:59:42.643Z,16064
2017-01-06T12:01:51.471Z,15168
2017-01-06T12:04:05.067Z,16704
2017-01-06T12:06:17.967Z,15200
2017-01-06T12:08:30.638Z,14976
2017-01-06T12:10:43.526Z,17056
2017-01-06T12:12:55.982Z,19392
2017-01-06T12:15:08.527Z,20032
2017-01-06T12:17:20.993Z,19168
2017-01-06T12:19:33.978Z,17472
2017-01-06T12:21:46.827Z,20224
2017-01-06T12:23:54.510Z,29312
2017-01-06T12:26:06.879Z,29120
2017-01-06T12:28:22.483Z,24768
2017-01-06T12:30:34.843Z,23968
2017-01-06T12:32:47.202Z,28768
2017-01-06T12:34:59.862Z,23680
2017-01-06T12:37:16.298Z,22400
2017-01-06T12:39:28.795Z,21152
2017-01-06T12:41:41.430Z,19392
2017-01-06T12:43:53.819Z,22464
2017-01-06T12:46:01.459Z,22048
2017-01-06T12:48:14.560Z,23712
2017-01-06T12:50:26.889Z,8416
2017-01-06T12:52:39.096Z,21504
2017-01-06T12:54:51.576Z,11176
2017-01-06T12:57:04.837Z,11512
2017-01-06T12:59:17.341Z,16096
2017-01-06T13:01:30.393Z,17600
2017-01-06T13:03:42.801Z,17024
2017-01-06T13:05:55.699Z,15936
2017-01-06T13:08:08.071Z,18400
2017-01-06T13:10:20.662Z,17920
2017-01-06T13:12:33.004Z,15136
2017-01-06T13:14:40.269Z,7944
2017-01-06T13:16:52.586Z,11868
2017-01-06T13:19:05.213Z,12620
2017-01-06T13:21:17.689Z,10032
2017-01-06T13:23:26.200Z,12672
2017-01-06T13:25:33.885Z,11500
2017-01-06T13:27:46.373Z,12992
2017-01-06T13:29:58.863Z,16032
2017-01-06T13:32:11.387Z,11992
2017-01-06T13:34:23.815Z,12768
2017-01-06T13:36:36.222Z,10540
2017-01-06T13:38:48.637Z,14976
2017-01-06T13:41:00.941Z,13568
2017-01-06T13:43:13.284Z,12256
2017-01-06T13:45:25.658Z,13408
2017-01-06T13:47:33.133Z,13824
2017-01-06T13:49:45.524Z,14912
2017-01-06T13:51:58.313Z,14784
2017-01-06T13:54:12.131Z,14272
2017-01-06T13:56:28.391Z,14240
2017-01-06T13:58:40.906Z,14528
2017-01-06T14:00:48.485Z,12832
2017-01-06T14:03:02.041Z,8572
2017-01-06T14:05:15.042Z,7828
2017-01-06T14:07:27.534Z,7512
2017-01-06T14:09:30.120Z,7256
2017-01-06T14:11:42.404Z,6964
2017-01-06T14:13:54.761Z,6676
2017-01-06T14:16:07.075Z,6276
2017-01-06T14:18:30.209Z,5848
2017-01-06T14:20:44.159Z,5528
2017-01-06T14:22:56.497Z,5332
2017-01-06T14:25:09.037Z,5100
2017-01-06T14:27:21.630Z,4828
2017-01-06T14:29:34.168Z,4536
2017-01-06T14:31:46.427Z,4268
2017-01-06T14:33:58.909Z,4024
2017-01-06T14:36:11.208Z,3772
2017-01-06T14:38:23.599Z,3520
2017-01-06T14:40:36.338Z,3296
2017-01-06T14:42:49.042Z,3072
2017-01-06T14:45:01.785Z,2848
2017-01-06T14:47:09.278Z,2660
2017-01-06T14:49:21.927Z,2492
2017-01-06T14:51:34.923Z,2336
2017-01-06T14:53:47.515Z,2208
2017-01-06T14:55:55.353Z,2092
2017-01-06T14:58:07.948Z,1976
2017-01-06T15:00:20.469Z,1864
2017-01-06T15:02:33.016Z,1760
2017-01-06T15:04:45.520Z,1656
2017-01-06T15:06:58.105Z,1544
2017-01-06T15:09:05.480Z,1432
2017-01-06T15:11:18.100Z,1316
2017-01-06T15:13:30.590Z,1208
2017-01-06T15:15:43.094Z,1100
2017-01-06T15:17:55.430Z,992
2017-01-06T15:20:08.139Z,896
2017-01-06T15:22:20.632Z,804
2017-01-06T15:24:33.105Z,708
2017-01-06T15:26:45.462Z,628
2017-01-06T15:28:58.513Z,548
2017-01-06T15:31:11.708Z,476
2017-01-06T15:33:24.691Z,408
2017-01-06T15:35:37.718Z,348
2017-01-06T15:37:45.167Z,292
2017-01-06T15:39:57.420Z,240
2017-01-06T15:42:09.673Z,196
2017-01-06T15:44:21.905Z,156
2017-01-06T15:46:34.358Z,124
2017-01-06T15:48:46.636Z,96
2017-01-06T15:50:59.057Z,72
2017-01-06T15:53:06.488Z,56
2017-01-06T15:55:18.849Z,40
2017-01-06T15:57:31.174Z,28
2017-01-06T15:59:43.659Z,20
2017-01-06T16:01:55.923Z,12
2017-01-06T16:04:03.231Z,8
2017-01-06T16:06:15.484Z,8
2017-01-06T16:08:27.733Z,4
2017-01-06T16:10:40.288Z,4
2017-01-06T16:12:47.640Z,4
2017-01-06T16:15:00.097Z,0
2017-01-06T16:17:12.668Z,4
2017-01-06T16:19:25.166Z,0
2017-01-06T16:21:37.744Z,0
2017-01-06T16:23:45.227Z,0
2017-01-06T16:25:57.861Z,0
2017-01-06T16:28:10.526Z,0
2017-01-06T16:30:23.134Z,0
2017-01-06T16:32:35.614Z,0
2017-01-06T16:34:48.771Z,0
2017-01-06T16:37:03.753Z,0
2017-01-06T16:39:16.495Z,0
2017-01-06T16:41:29.261Z,0
2017-01-06T16:43:41.854Z,0
2017-01-06T16:45:54.327Z,0
2017-01-06T16:48:07.001Z,0
2017-01-06T16:50:14.572Z,0
2017-01-06T16:52:27.220Z,0
2017-01-06T16:54:44.295Z,0
2017-01-06T16:57:02.808Z,0
2017-01-06T16:59:15.227Z,0
2017-01-06T17:01:27.822Z,0
2017-01-06T17:03:40.440Z,0
2017-01-06T17:05:53.332Z,0
2017-01-06T17:08:05.846Z,0
2017-01-06T17:10:18.311Z,0
2017-01-06T17:12:25.681Z,0
2017-01-06T17:14:38.436Z,0
2017-01-06T17:16:50.738Z,0
2017-01-06T17:19:04.214Z,0
2017-01-06T17:21:11.794Z,0
2017-01-06T17:23:24.325Z,0
2017-01-06T17:25:36.624Z,0
2017-01-06T17:27:49.122Z,0
2017-01-06T17:30:01.798Z,0
2017-01-06T17:32:14.283Z,0
2017-01-06T17:34:26.657Z,0
2017-01-06T17:36:39.127Z,0
2017-01-06T17:38:51.563Z,0
2017-01-06T17:41:04.086Z,0
2017-01-06T17:43:16.656Z,0
2017-01-06T17:45:29.166Z,0
2017-01-06T17:47:41.625Z,0
2017-01-06T17:49:54.276Z,0
2017-01-06T17:52:06.738Z,0
2017-01-06T17:54:19.141Z,0
2017-01-06T17:56:31.428Z,0
2017-01-06T17:58:39.168Z,0
2017-01-06T18:00:51.642Z,0
2017-01-06T18:02:58.994Z,0
2017-01-06T18:05:11.478Z,0
2017-01-06T18:07:23.860Z,0
2017-01-06T18:09:31.526Z,0
2017-01-06T18:11:44.147Z,0
2017-01-06T18:13:56.742Z,0
2017-01-06T18:16:09.245Z,0
2017-01-06T18:18:21.987Z,0
2017-01-06T18:20:34.421Z,0
2017-01-06T18:22:41.839Z,0
2017-01-06T18:24:54.218Z,0
2017-01-06T18:27:06.517Z,0
2017-01-06T18:29:18.847Z,0
2017-01-06T18:31:31.291Z,0
2017-01-06T18:33:43.900Z,0
2017-01-06T18:35:56.370Z,0
2017-01-06T18:38:09.066Z,0
2017-01-06T18:40:21.642Z,0
2017-01-06T18:42:34.179Z,0
2017-01-06T18:44:41.746Z,0
2017-01-06T18:46:54.338Z,0
2017-01-06T18:49:06.808Z,0
2017-01-06T18:51:14.226Z,0
2017-01-06T18:53:26.975Z,0
2017-01-06T18:55:39.667Z,0
2017-01-06T18:57:52.352Z,0
2017-01-06T19:00:05.330Z,0
2017-01-06T19:02:18.145Z,0
2017-01-06T19:04:31.272Z,0
2017-01-06T19:06:55.238Z,0
2017-01-06T19:09:04.178Z,0
2017-01-06T19:11:16.608Z,0
2017-01-06T19:13:29.849Z,0
2017-01-06T19:15:37.545Z,0
2017-01-06T19:17:50.319Z,0
2017-01-06T19:20:10.118Z,0
2017-01-06T19:22:23.164Z,0
2017-01-06T19:24:35.936Z,0
2017-01-06T19:26:49.158Z,0
2017-01-06T19:29:02.941Z,0
2017-01-06T19:31:17.552Z,0
2017-01-06T19:33:32.332Z,0
2017-01-06T19:35:48.009Z,0
2017-01-06T19:38:02.939Z,0
2017-01-06T19:40:18.692Z,0
2017-01-06T19:42:35.247Z,0
2017-01-06T19:44:51.053Z,0
2017-01-06T19:47:09.109Z,0
2017-01-06T19:49:25.850Z,0
2017-01-06T19:51:41.451Z,0
2017-01-06T19:53:58.057Z,0
2017-01-06T19:56:07.860Z,0
2017-01-06T19:58:23.048Z,0
2017-01-06T20:00:37.161Z,0
2017-01-06T20:02:51.576Z,0
2017-01-06T20:05:06.969Z,0
2017-01-06T20:07:22.146Z,0
2017-01-06T20:09:36.799Z,0
2017-01-06T20:11:54.462Z,0
2017-01-06T20:14:08.611Z,0
2017-01-06T20:16:23.016Z,0
2017-01-06T20:18:32.853Z,0
2017-01-06T20:20:47.176Z,0
2017-01-06T20:23:02.326Z,0
2017-01-06T20:25:18.333Z,0
2017-01-06T20:27:33.673Z,0
2017-01-06T20:29:49.097Z,0
2017-01-06T20:32:02.462Z,0
2017-01-06T20:34:16.237Z,0
2017-01-06T20:36:30.608Z,0
2017-01-06T20:38:44.961Z,0
2017-01-06T20:40:59.073Z,0
2017-01-06T20:43:12.647Z,0
2017-01-06T20:45:26.721Z,0
2017-01-06T20:47:41.474Z,0
2017-01-06T20:49:55.043Z,0
2017-01-06T20:52:09.069Z,0
2017-01-06T20:54:22.761Z,0
2017-01-06T20:56:35.781Z,0
2017-01-06T20:58:43.637Z,0
2017-01-06T21:00:56.965Z,0
2017-01-06T21:03:09.602Z,0
2017-01-06T21:05:23.413Z,0
2017-01-06T21:07:37.174Z,0
2017-01-06T21:09:51.220Z,0
2017-01-06T21:12:04.512Z,0
2017-01-06T21:14:17.909Z,0
2017-01-06T21:16:26.382Z,0
2017-01-06T21:18:39.825Z,0
2017-01-06T21:20:53.612Z,0
2017-01-06T21:23:06.356Z,0
2017-01-06T21:25:19.305Z,0
2017-01-06T21:27:31.822Z,0
2017-01-06T21:29:44.345Z,0
2017-01-06T21:31:56.960Z,0
2017-01-06T21:34:09.462Z,0
2017-01-06T21:36:17.480Z,0
2017-01-06T21:38:25.058Z,0
2017-01-06T21:40:32.401Z,0
2017-01-06T21:42:44.835Z,0
2017-01-06T21:44:57.403Z,0
2017-01-06T21:47:09.833Z,0
2017-01-06T21:49:22.261Z,0
2017-01-06T21:51:35.031Z,0
2017-01-06T21:53:42.636Z,0
2017-01-06T21:56:19.292Z,0
2017-01-06T21:58:56.053Z,0
2017-01-06T22:01:08.734Z,0
2017-01-06T22:03:21.216Z,0
2017-01-06T22:05:34.058Z,0
2017-01-06T22:07:46.710Z,0
2017-01-06T22:09:59.286Z,0
2017-01-06T22:12:15.858Z,0
2017-01-06T22:14:29.877Z,0
2017-01-06T22:16:44.310Z,0
2017-01-06T22:18:56.813Z,0
2017-01-06T22:21:10.499Z,0
2017-01-06T22:23:23.103Z,0
2017-01-06T22:25:30.787Z,0
2017-01-06T22:27:43.269Z,0
2017-01-06T22:29:55.690Z,0
2017-01-06T22:32:03.294Z,0
2017-01-06T22:34:15.600Z,0
2017-01-06T22:36:29.808Z,0
2017-01-06T22:38:44.538Z,0
2017-01-06T22:40:56.963Z,0
2017-01-06T22:43:11.086Z,0
2017-01-06T22:45:23.570Z,0
2017-01-06T22:47:31.239Z,0
2017-01-06T22:49:43.538Z,0
2017-01-06T22:51:56.162Z,0
2017-01-06T22:54:08.679Z,0
2017-01-06T22:56:21.025Z,0
2017-01-06T22:58:28.724Z,0
2017-01-06T23:00:36.253Z,0
2017-01-06T23:02:43.642Z,0
2017-01-06T23:04:56.148Z,0
2017-01-06T23:07:08.363Z,0
2017-01-06T23:09:20.868Z,0
2017-01-06T23:11:33.127Z,0
2017-01-06T23:13:45.585Z,0
2017-01-06T23:15:53.015Z,0
2017-01-06T23:18:05.461Z,0
2017-01-06T23:20:18.009Z,0
2017-01-06T23:22:30.268Z,0
2017-01-06T23:24:42.611Z,0
2017-01-06T23:26:55.143Z,0
2017-01-06T23:29:07.579Z,0
2017-01-06T23:31:19.948Z,0
2017-01-06T23:33:27.924Z,0
2017-01-06T23:35:40.445Z,0
2017-01-06T23:37:47.973Z,0
2017-01-06T23:40:00.348Z,0
2017-01-06T23:42:12.917Z,0
2017-01-06T23:44:25.173Z,0
2017-01-06T23:46:37.553Z,0
2017-01-06T23:48:49.977Z,0
2017-01-06T23:51:02.274Z,0
2017-01-06T23:53:14.735Z,0
2017-01-06T23:55:23.122Z,0
2017-01-06T23:57:35.410Z,0
2017-01-06T23:59:47.757Z,0
